sensor_id;sensor_type;location;lat;lon;timestamp;P1;durP1;ratioP1;P2;durP2;ratioP2
17420;SDS011;8828;48.800;9.540;2022-07-23T00:00:49;5.63;;;3.90;;
17420;SDS011;8828;48.800;9.540;2022-07-23T00:03:17;6.63;;;4.03;;
17420;SDS011;8828;48.800;9.540;2022-07-23T00:05:46;4.40;;;3.63;;
17420;SDS011;8828;48.800;9.540;2022-07-23T00:08:14;4.30;;;3.80;;
17420;SDS011;8828;48.800;9.540;2022-07-23T00:10:42;5.10;;;3.60;;
17420;SDS011;8828;48.800;9.540;2022-07-23T00:13:10;4.53;;;3.57;;
17420;SDS011;8828;48.800;9.540;2022-07-23T00:15:38;4.87;;;3.90;;
17420;SDS011;8828;48.800;9.540;2022-07-23T00:18:06;4.30;;;3.77;;
17420;SDS011;8828;48.800;9.540;2022-07-23T00:20:34;5.40;;;3.67;;
17420;SDS011;8828;48.800;9.540;2022-07-23T00:23:04;4.53;;;3.93;;
17420;SDS011;8828;48.800;9.540;2022-07-23T00:25:31;4.63;;;3.40;;
17420;SDS011;8828;48.800;9.540;2022-07-23T00:28:00;6.17;;;3.70;;
17420;SDS011;8828;48.800;9.540;2022-07-23T00:30:29;7.47;;;3.90;;
17420;SDS011;8828;48.800;9.540;2022-07-23T00:32:58;6.10;;;3.53;;
17420;SDS011;8828;48.800;9.540;2022-07-23T00:35:28;5.07;;;3.73;;
17420;SDS011;8828;48.800;9.540;2022-07-23T00:37:57;4.03;;;3.37;;
17420;SDS011;8828;48.800;9.540;2022-07-23T00:40:29;5.33;;;3.63;;
17420;SDS011;8828;48.800;9.540;2022-07-23T00:42:57;6.43;;;3.93;;
17420;SDS011;8828;48.800;9.540;2022-07-23T00:45:26;7.47;;;3.60;;
17420;SDS011;8828;48.800;9.540;2022-07-23T00:47:54;6.10;;;3.30;;
17420;SDS011;8828;48.800;9.540;2022-07-23T00:50:22;4.07;;;3.63;;
17420;SDS011;8828;48.800;9.540;2022-07-23T00:52:51;5.10;;;3.53;;
17420;SDS011;8828;48.800;9.540;2022-07-23T00:55:19;5.30;;;3.60;;
17420;SDS011;8828;48.800;9.540;2022-07-23T00:57:49;5.60;;;3.53;;
17420;SDS011;8828;48.800;9.540;2022-07-23T01:00:18;6.07;;;3.57;;
17420;SDS011;8828;48.800;9.540;2022-07-23T01:02:46;6.03;;;4.10;;
17420;SDS011;8828;48.800;9.540;2022-07-23T01:05:14;5.50;;;3.57;;
17420;SDS011;8828;48.800;9.540;2022-07-23T01:07:43;4.43;;;3.50;;
17420;SDS011;8828;48.800;9.540;2022-07-23T01:10:11;4.90;;;3.60;;
17420;SDS011;8828;48.800;9.540;2022-07-23T01:12:59;5.20;;;3.37;;
17420;SDS011;8828;48.800;9.540;2022-07-23T01:15:28;4.23;;;3.40;;
17420;SDS011;8828;48.800;9.540;2022-07-23T01:17:57;6.23;;;3.60;;
17420;SDS011;8828;48.800;9.540;2022-07-23T01:20:25;8.93;;;3.30;;
17420;SDS011;8828;48.800;9.540;2022-07-23T01:22:54;4.27;;;3.23;;
17420;SDS011;8828;48.800;9.540;2022-07-23T01:25:23;4.17;;;3.00;;
17420;SDS011;8828;48.800;9.540;2022-07-23T01:27:52;3.57;;;2.90;;
17420;SDS011;8828;48.800;9.540;2022-07-23T01:30:20;3.50;;;2.90;;
17420;SDS011;8828;48.800;9.540;2022-07-23T01:32:48;3.63;;;2.80;;
17420;SDS011;8828;48.800;9.540;2022-07-23T01:35:16;6.63;;;3.10;;
17420;SDS011;8828;48.800;9.540;2022-07-23T01:37:44;3.53;;;2.70;;
17420;SDS011;8828;48.800;9.540;2022-07-23T01:40:13;5.40;;;3.13;;
17420;SDS011;8828;48.800;9.540;2022-07-23T01:42:44;3.20;;;2.67;;
17420;SDS011;8828;48.800;9.540;2022-07-23T01:45:12;4.47;;;2.80;;
17420;SDS011;8828;48.800;9.540;2022-07-23T01:47:40;3.80;;;3.03;;
17420;SDS011;8828;48.800;9.540;2022-07-23T01:50:08;4.67;;;3.03;;
17420;SDS011;8828;48.800;9.540;2022-07-23T01:52:37;4.73;;;3.40;;
17420;SDS011;8828;48.800;9.540;2022-07-23T01:55:05;4.20;;;2.93;;
17420;SDS011;8828;48.800;9.540;2022-07-23T01:57:35;4.73;;;3.40;;
17420;SDS011;8828;48.800;9.540;2022-07-23T02:00:04;4.87;;;2.90;;
17420;SDS011;8828;48.800;9.540;2022-07-23T02:02:33;3.83;;;3.07;;
17420;SDS011;8828;48.800;9.540;2022-07-23T02:05:01;4.57;;;3.23;;
17420;SDS011;8828;48.800;9.540;2022-07-23T02:07:29;5.27;;;3.10;;
17420;SDS011;8828;48.800;9.540;2022-07-23T02:10:00;5.10;;;3.13;;
17420;SDS011;8828;48.800;9.540;2022-07-23T02:12:28;4.00;;;3.10;;
17420;SDS011;8828;48.800;9.540;2022-07-23T02:14:57;4.17;;;3.10;;
17420;SDS011;8828;48.800;9.540;2022-07-23T02:17:25;4.80;;;3.30;;
17420;SDS011;8828;48.800;9.540;2022-07-23T02:19:53;5.10;;;3.40;;
17420;SDS011;8828;48.800;9.540;2022-07-23T02:22:21;6.13;;;2.93;;
17420;SDS011;8828;48.800;9.540;2022-07-23T02:24:49;3.97;;;3.30;;
17420;SDS011;8828;48.800;9.540;2022-07-23T02:27:17;4.43;;;3.30;;
17420;SDS011;8828;48.800;9.540;2022-07-23T02:29:45;5.10;;;3.40;;
17420;SDS011;8828;48.800;9.540;2022-07-23T02:32:14;3.50;;;2.90;;
17420;SDS011;8828;48.800;9.540;2022-07-23T02:34:42;4.53;;;3.27;;
17420;SDS011;8828;48.800;9.540;2022-07-23T02:37:10;5.33;;;3.13;;
17420;SDS011;8828;48.800;9.540;2022-07-23T02:39:38;4.33;;;3.17;;
17420;SDS011;8828;48.800;9.540;2022-07-23T02:42:06;4.97;;;3.10;;
17420;SDS011;8828;48.800;9.540;2022-07-23T02:44:34;5.57;;;3.03;;
17420;SDS011;8828;48.800;9.540;2022-07-23T02:47:02;3.90;;;2.97;;
17420;SDS011;8828;48.800;9.540;2022-07-23T02:49:32;5.07;;;3.57;;
17420;SDS011;8828;48.800;9.540;2022-07-23T02:52:00;5.27;;;3.20;;
17420;SDS011;8828;48.800;9.540;2022-07-23T02:54:28;5.30;;;3.20;;
17420;SDS011;8828;48.800;9.540;2022-07-23T02:56:56;4.80;;;3.00;;
17420;SDS011;8828;48.800;9.540;2022-07-23T02:59:24;3.10;;;2.73;;
17420;SDS011;8828;48.800;9.540;2022-07-23T03:01:52;6.63;;;3.60;;
17420;SDS011;8828;48.800;9.540;2022-07-23T03:04:20;4.30;;;3.10;;
17420;SDS011;8828;48.800;9.540;2022-07-23T03:06:50;6.57;;;3.37;;
17420;SDS011;8828;48.800;9.540;2022-07-23T03:09:18;5.63;;;3.73;;
17420;SDS011;8828;48.800;9.540;2022-07-23T03:11:46;4.93;;;3.23;;
17420;SDS011;8828;48.800;9.540;2022-07-23T03:14:14;4.37;;;3.30;;
17420;SDS011;8828;48.800;9.540;2022-07-23T03:16:42;4.80;;;3.10;;
17420;SDS011;8828;48.800;9.540;2022-07-23T03:19:10;4.87;;;3.70;;
17420;SDS011;8828;48.800;9.540;2022-07-23T03:21:38;4.27;;;3.60;;
17420;SDS011;8828;48.800;9.540;2022-07-23T03:24:08;4.00;;;3.43;;
17420;SDS011;8828;48.800;9.540;2022-07-23T03:26:37;4.87;;;3.70;;
17420;SDS011;8828;48.800;9.540;2022-07-23T03:29:05;4.30;;;3.20;;
17420;SDS011;8828;48.800;9.540;2022-07-23T03:31:33;4.13;;;3.20;;
17420;SDS011;8828;48.800;9.540;2022-07-23T03:34:02;4.57;;;3.27;;
17420;SDS011;8828;48.800;9.540;2022-07-23T03:36:30;4.20;;;3.20;;
17420;SDS011;8828;48.800;9.540;2022-07-23T03:38:58;5.80;;;3.40;;
17420;SDS011;8828;48.800;9.540;2022-07-23T03:41:28;3.97;;;3.33;;
17420;SDS011;8828;48.800;9.540;2022-07-23T03:43:56;4.60;;;3.33;;
17420;SDS011;8828;48.800;9.540;2022-07-23T03:46:24;4.57;;;3.33;;
17420;SDS011;8828;48.800;9.540;2022-07-23T03:48:52;5.53;;;3.20;;
17420;SDS011;8828;48.800;9.540;2022-07-23T03:51:24;4.73;;;3.10;;
17420;SDS011;8828;48.800;9.540;2022-07-23T03:53:52;4.20;;;3.43;;
17420;SDS011;8828;48.800;9.540;2022-07-23T03:56:20;4.47;;;3.47;;
17420;SDS011;8828;48.800;9.540;2022-07-23T03:58:50;5.23;;;3.87;;
17420;SDS011;8828;48.800;9.540;2022-07-23T04:01:18;5.77;;;3.90;;
17420;SDS011;8828;48.800;9.540;2022-07-23T04:03:46;4.17;;;2.83;;
17420;SDS011;8828;48.800;9.540;2022-07-23T04:06:14;4.83;;;3.60;;
17420;SDS011;8828;48.800;9.540;2022-07-23T04:08:42;5.30;;;3.87;;
17420;SDS011;8828;48.800;9.540;2022-07-23T04:11:10;5.23;;;3.27;;
17420;SDS011;8828;48.800;9.540;2022-07-23T04:13:39;4.70;;;3.20;;
17420;SDS011;8828;48.800;9.540;2022-07-23T04:16:08;7.40;;;3.27;;
17420;SDS011;8828;48.800;9.540;2022-07-23T04:18:37;6.50;;;3.37;;
17420;SDS011;8828;48.800;9.540;2022-07-23T04:21:05;4.70;;;2.80;;
17420;SDS011;8828;48.800;9.540;2022-07-23T04:23:33;4.43;;;3.70;;
17420;SDS011;8828;48.800;9.540;2022-07-23T04:26:01;4.33;;;3.03;;
17420;SDS011;8828;48.800;9.540;2022-07-23T04:28:29;5.10;;;3.33;;
17420;SDS011;8828;48.800;9.540;2022-07-23T04:30:57;7.30;;;3.67;;
17420;SDS011;8828;48.800;9.540;2022-07-23T04:33:26;5.80;;;3.57;;
17420;SDS011;8828;48.800;9.540;2022-07-23T04:35:54;4.17;;;3.23;;
17420;SDS011;8828;48.800;9.540;2022-07-23T04:38:22;4.87;;;3.40;;
17420;SDS011;8828;48.800;9.540;2022-07-23T04:40:50;6.10;;;4.00;;
17420;SDS011;8828;48.800;9.540;2022-07-23T04:43:18;6.40;;;3.60;;
17420;SDS011;8828;48.800;9.540;2022-07-23T04:45:46;5.17;;;3.83;;
17420;SDS011;8828;48.800;9.540;2022-07-23T04:48:14;4.50;;;3.57;;
17420;SDS011;8828;48.800;9.540;2022-07-23T04:50:44;5.80;;;3.60;;
17420;SDS011;8828;48.800;9.540;2022-07-23T04:53:12;6.27;;;3.40;;
17420;SDS011;8828;48.800;9.540;2022-07-23T04:55:40;4.87;;;3.83;;
17420;SDS011;8828;48.800;9.540;2022-07-23T04:58:07;5.13;;;3.73;;
17420;SDS011;8828;48.800;9.540;2022-07-23T05:00:35;6.10;;;4.13;;
17420;SDS011;8828;48.800;9.540;2022-07-23T05:03:03;4.07;;;3.57;;
17420;SDS011;8828;48.800;9.540;2022-07-23T05:05:31;4.83;;;3.77;;
17420;SDS011;8828;48.800;9.540;2022-07-23T05:08:01;4.30;;;3.63;;
17420;SDS011;8828;48.800;9.540;2022-07-23T05:10:29;4.43;;;3.60;;
17420;SDS011;8828;48.800;9.540;2022-07-23T05:12:57;4.03;;;3.50;;
17420;SDS011;8828;48.800;9.540;2022-07-23T05:15:25;5.37;;;3.70;;
17420;SDS011;8828;48.800;9.540;2022-07-23T05:17:53;5.13;;;3.93;;
17420;SDS011;8828;48.800;9.540;2022-07-23T05:20:21;4.90;;;3.93;;
17420;SDS011;8828;48.800;9.540;2022-07-23T05:22:49;5.10;;;3.93;;
17420;SDS011;8828;48.800;9.540;2022-07-23T05:25:18;4.73;;;4.17;;
17420;SDS011;8828;48.800;9.540;2022-07-23T05:27:46;5.27;;;3.97;;
17420;SDS011;8828;48.800;9.540;2022-07-23T05:30:14;6.27;;;4.10;;
17420;SDS011;8828;48.800;9.540;2022-07-23T05:32:42;4.67;;;3.87;;
17420;SDS011;8828;48.800;9.540;2022-07-23T05:35:10;5.33;;;4.07;;
17420;SDS011;8828;48.800;9.540;2022-07-23T05:37:39;5.47;;;3.87;;
17420;SDS011;8828;48.800;9.540;2022-07-23T05:40:08;8.20;;;4.77;;
17420;SDS011;8828;48.800;9.540;2022-07-23T05:42:39;5.53;;;4.13;;
17420;SDS011;8828;48.800;9.540;2022-07-23T05:45:08;5.40;;;4.13;;
17420;SDS011;8828;48.800;9.540;2022-07-23T05:47:43;5.50;;;4.33;;
17420;SDS011;8828;48.800;9.540;2022-07-23T05:50:12;5.37;;;4.27;;
17420;SDS011;8828;48.800;9.540;2022-07-23T05:52:41;4.37;;;3.80;;
17420;SDS011;8828;48.800;9.540;2022-07-23T05:55:10;7.10;;;4.50;;
17420;SDS011;8828;48.800;9.540;2022-07-23T05:57:41;9.47;;;6.90;;
17420;SDS011;8828;48.800;9.540;2022-07-23T06:00:09;5.23;;;4.33;;
17420;SDS011;8828;48.800;9.540;2022-07-23T06:02:38;5.20;;;4.20;;
17420;SDS011;8828;48.800;9.540;2022-07-23T06:05:07;5.73;;;4.60;;
17420;SDS011;8828;48.800;9.540;2022-07-23T06:07:35;5.07;;;3.90;;
17420;SDS011;8828;48.800;9.540;2022-07-23T06:10:04;5.57;;;4.27;;
17420;SDS011;8828;48.800;9.540;2022-07-23T06:12:33;5.37;;;4.50;;
17420;SDS011;8828;48.800;9.540;2022-07-23T06:15:03;4.40;;;3.97;;
17420;SDS011;8828;48.800;9.540;2022-07-23T06:17:36;6.93;;;4.57;;
17420;SDS011;8828;48.800;9.540;2022-07-23T06:20:06;5.37;;;3.90;;
17420;SDS011;8828;48.800;9.540;2022-07-23T06:22:34;8.70;;;4.67;;
17420;SDS011;8828;48.800;9.540;2022-07-23T06:25:03;7.63;;;4.53;;
17420;SDS011;8828;48.800;9.540;2022-07-23T06:27:44;6.67;;;4.33;;
17420;SDS011;8828;48.800;9.540;2022-07-23T06:30:14;6.00;;;4.40;;
17420;SDS011;8828;48.800;9.540;2022-07-23T06:32:44;5.93;;;4.63;;
17420;SDS011;8828;48.800;9.540;2022-07-23T06:35:12;11.83;;;7.87;;
17420;SDS011;8828;48.800;9.540;2022-07-23T06:37:40;6.70;;;5.03;;
17420;SDS011;8828;48.800;9.540;2022-07-23T06:40:08;6.63;;;5.00;;
17420;SDS011;8828;48.800;9.540;2022-07-23T06:42:37;6.27;;;4.60;;
17420;SDS011;8828;48.800;9.540;2022-07-23T06:45:05;7.50;;;4.40;;
17420;SDS011;8828;48.800;9.540;2022-07-23T06:47:36;5.57;;;4.53;;
17420;SDS011;8828;48.800;9.540;2022-07-23T06:50:05;7.10;;;4.50;;
17420;SDS011;8828;48.800;9.540;2022-07-23T06:52:33;7.87;;;4.77;;
17420;SDS011;8828;48.800;9.540;2022-07-23T06:55:08;6.07;;;4.20;;
17420;SDS011;8828;48.800;9.540;2022-07-23T06:57:36;6.13;;;4.63;;
17420;SDS011;8828;48.800;9.540;2022-07-23T07:00:04;5.37;;;4.23;;
17420;SDS011;8828;48.800;9.540;2022-07-23T07:02:33;9.10;;;6.03;;
17420;SDS011;8828;48.800;9.540;2022-07-23T07:05:03;7.97;;;5.07;;
17420;SDS011;8828;48.800;9.540;2022-07-23T07:07:32;10.70;;;4.13;;
17420;SDS011;8828;48.800;9.540;2022-07-23T07:10:00;8.57;;;4.50;;
17420;SDS011;8828;48.800;9.540;2022-07-23T07:12:28;7.67;;;4.63;;
17420;SDS011;8828;48.800;9.540;2022-07-23T07:14:56;5.83;;;4.67;;
17420;SDS011;8828;48.800;9.540;2022-07-23T07:17:25;5.50;;;4.37;;
17420;SDS011;8828;48.800;9.540;2022-07-23T07:19:55;7.80;;;4.93;;
17420;SDS011;8828;48.800;9.540;2022-07-23T07:22:25;7.53;;;4.27;;
17420;SDS011;8828;48.800;9.540;2022-07-23T07:24:53;5.60;;;4.10;;
17420;SDS011;8828;48.800;9.540;2022-07-23T07:27:21;6.70;;;4.63;;
17420;SDS011;8828;48.800;9.540;2022-07-23T07:29:49;4.90;;;4.03;;
17420;SDS011;8828;48.800;9.540;2022-07-23T07:32:17;4.97;;;4.03;;
17420;SDS011;8828;48.800;9.540;2022-07-23T07:35:07;6.30;;;4.10;;
17420;SDS011;8828;48.800;9.540;2022-07-23T07:37:36;5.93;;;4.10;;
17420;SDS011;8828;48.800;9.540;2022-07-23T07:40:04;6.17;;;4.70;;
17420;SDS011;8828;48.800;9.540;2022-07-23T07:42:33;5.30;;;4.23;;
17420;SDS011;8828;48.800;9.540;2022-07-23T07:45:01;6.67;;;4.77;;
17420;SDS011;8828;48.800;9.540;2022-07-23T07:47:29;9.70;;;6.13;;
17420;SDS011;8828;48.800;9.540;2022-07-23T07:49:57;9.93;;;6.73;;
17420;SDS011;8828;48.800;9.540;2022-07-23T07:52:26;8.80;;;4.90;;
17420;SDS011;8828;48.800;9.540;2022-07-23T07:54:54;7.27;;;4.90;;
17420;SDS011;8828;48.800;9.540;2022-07-23T07:57:22;6.90;;;5.07;;
17420;SDS011;8828;48.800;9.540;2022-07-23T07:59:51;6.00;;;5.17;;
17420;SDS011;8828;48.800;9.540;2022-07-23T08:02:22;6.90;;;4.77;;
17420;SDS011;8828;48.800;9.540;2022-07-23T08:04:50;7.97;;;5.10;;
17420;SDS011;8828;48.800;9.540;2022-07-23T08:07:18;7.13;;;5.17;;
17420;SDS011;8828;48.800;9.540;2022-07-23T08:09:49;6.33;;;5.10;;
17420;SDS011;8828;48.800;9.540;2022-07-23T08:12:17;7.10;;;4.80;;
17420;SDS011;8828;48.800;9.540;2022-07-23T08:14:45;6.33;;;4.77;;
17420;SDS011;8828;48.800;9.540;2022-07-23T08:17:13;8.43;;;5.30;;
17420;SDS011;8828;48.800;9.540;2022-07-23T08:19:41;7.07;;;4.97;;
17420;SDS011;8828;48.800;9.540;2022-07-23T08:22:09;8.93;;;5.77;;
17420;SDS011;8828;48.800;9.540;2022-07-23T08:24:37;7.57;;;5.33;;
17420;SDS011;8828;48.800;9.540;2022-07-23T08:27:06;8.63;;;5.10;;
17420;SDS011;8828;48.800;9.540;2022-07-23T08:29:34;7.65;;;5.20;;
17420;SDS011;8828;48.800;9.540;2022-07-23T08:32:02;8.00;;;5.25;;
17420;SDS011;8828;48.800;9.540;2022-07-23T08:34:51;6.90;;;5.22;;
17420;SDS011;8828;48.800;9.540;2022-07-23T08:37:19;6.05;;;5.15;;
17420;SDS011;8828;48.800;9.540;2022-07-23T08:39:46;7.00;;;5.15;;
17420;SDS011;8828;48.800;9.540;2022-07-23T08:42:16;8.02;;;5.13;;
17420;SDS011;8828;48.800;9.540;2022-07-23T08:44:45;7.25;;;5.15;;
17420;SDS011;8828;48.800;9.540;2022-07-23T08:47:13;6.88;;;5.43;;
17420;SDS011;8828;48.800;9.540;2022-07-23T08:49:43;8.70;;;5.38;;
17420;SDS011;8828;48.800;9.540;2022-07-23T08:52:13;6.75;;;5.25;;
17420;SDS011;8828;48.800;9.540;2022-07-23T08:54:41;6.47;;;4.93;;
17420;SDS011;8828;48.800;9.540;2022-07-23T08:57:10;7.68;;;4.85;;
17420;SDS011;8828;48.800;9.540;2022-07-23T08:59:40;5.60;;;4.05;;
17420;SDS011;8828;48.800;9.540;2022-07-23T09:02:08;6.15;;;4.72;;
17420;SDS011;8828;48.800;9.540;2022-07-23T09:04:36;6.95;;;4.90;;
17420;SDS011;8828;48.800;9.540;2022-07-23T09:07:04;10.43;;;6.32;;
17420;SDS011;8828;48.800;9.540;2022-07-23T09:09:32;6.38;;;5.43;;
17420;SDS011;8828;48.800;9.540;2022-07-23T09:12:03;6.07;;;4.72;;
17420;SDS011;8828;48.800;9.540;2022-07-23T09:14:35;7.05;;;4.63;;
17420;SDS011;8828;48.800;9.540;2022-07-23T09:17:14;7.75;;;4.68;;
17420;SDS011;8828;48.800;9.540;2022-07-23T09:19:43;6.25;;;4.60;;
17420;SDS011;8828;48.800;9.540;2022-07-23T09:22:17;6.05;;;4.13;;
17420;SDS011;8828;48.800;9.540;2022-07-23T09:27:50;12.05;;;9.15;;
17420;SDS011;8828;48.800;9.540;2022-07-23T09:30:21;9.48;;;6.07;;
17420;SDS011;8828;48.800;9.540;2022-07-23T09:33:08;7.15;;;4.82;;
17420;SDS011;8828;48.800;9.540;2022-07-23T09:35:44;5.55;;;4.50;;
17420;SDS011;8828;48.800;9.540;2022-07-23T09:38:12;5.47;;;4.25;;
17420;SDS011;8828;48.800;9.540;2022-07-23T09:40:42;5.50;;;4.47;;
17420;SDS011;8828;48.800;9.540;2022-07-23T09:43:11;6.00;;;4.20;;
17420;SDS011;8828;48.800;9.540;2022-07-23T09:45:39;6.63;;;4.40;;
17420;SDS011;8828;48.800;9.540;2022-07-23T09:48:12;7.45;;;4.25;;
17420;SDS011;8828;48.800;9.540;2022-07-23T09:50:43;5.82;;;4.05;;
17420;SDS011;8828;48.800;9.540;2022-07-23T09:53:13;6.28;;;4.63;;
17420;SDS011;8828;48.800;9.540;2022-07-23T09:55:51;7.05;;;4.25;;
17420;SDS011;8828;48.800;9.540;2022-07-23T09:58:24;5.78;;;4.78;;
17420;SDS011;8828;48.800;9.540;2022-07-23T10:00:53;4.72;;;4.00;;
17420;SDS011;8828;48.800;9.540;2022-07-23T10:03:24;10.43;;;7.60;;
17420;SDS011;8828;48.800;9.540;2022-07-23T10:05:52;8.85;;;5.85;;
17420;SDS011;8828;48.800;9.540;2022-07-23T10:08:20;8.32;;;6.15;;
17420;SDS011;8828;48.800;9.540;2022-07-23T10:10:50;4.95;;;4.03;;
17420;SDS011;8828;48.800;9.540;2022-07-23T10:13:18;6.18;;;4.13;;
17420;SDS011;8828;48.800;9.540;2022-07-23T10:16:09;7.68;;;4.68;;
17420;SDS011;8828;48.800;9.540;2022-07-23T10:18:43;12.80;;;9.35;;
17420;SDS011;8828;48.800;9.540;2022-07-23T10:21:12;19.05;;;13.38;;
17420;SDS011;8828;48.800;9.540;2022-07-23T10:23:50;8.02;;;5.68;;
17420;SDS011;8828;48.800;9.540;2022-07-23T10:26:29;4.82;;;4.32;;
17420;SDS011;8828;48.800;9.540;2022-07-23T10:29:07;10.05;;;4.82;;
17420;SDS011;8828;48.800;9.540;2022-07-23T10:31:46;8.77;;;4.60;;
17420;SDS011;8828;48.800;9.540;2022-07-23T10:34:32;4.05;;;3.63;;
17420;SDS011;8828;48.800;9.540;2022-07-23T10:37:12;4.68;;;3.72;;
17420;SDS011;8828;48.800;9.540;2022-07-23T10:39:47;6.03;;;4.10;;
17420;SDS011;8828;48.800;9.540;2022-07-23T10:42:16;4.82;;;4.13;;
17420;SDS011;8828;48.800;9.540;2022-07-23T10:44:45;6.10;;;3.80;;
17420;SDS011;8828;48.800;9.540;2022-07-23T10:47:21;5.47;;;4.05;;
17420;SDS011;8828;48.800;9.540;2022-07-23T10:50:23;4.57;;;3.60;;
17420;SDS011;8828;48.800;9.540;2022-07-23T10:53:09;6.07;;;4.38;;
17420;SDS011;8828;48.800;9.540;2022-07-23T10:55:41;5.90;;;4.63;;
17420;SDS011;8828;48.800;9.540;2022-07-23T10:58:10;4.90;;;4.07;;
17420;SDS011;8828;48.800;9.540;2022-07-23T11:00:38;4.45;;;3.90;;
17420;SDS011;8828;48.800;9.540;2022-07-23T11:03:27;5.97;;;4.00;;
17420;SDS011;8828;48.800;9.540;2022-07-23T11:06:03;5.35;;;4.28;;
17420;SDS011;8828;48.800;9.540;2022-07-23T11:08:33;6.20;;;4.63;;
17420;SDS011;8828;48.800;9.540;2022-07-23T11:11:08;7.13;;;5.35;;
17420;SDS011;8828;48.800;9.540;2022-07-23T11:16:24;5.50;;;3.80;;
17420;SDS011;8828;48.800;9.540;2022-07-23T11:18:57;4.43;;;3.88;;
17420;SDS011;8828;48.800;9.540;2022-07-23T11:24:25;5.35;;;4.10;;
17420;SDS011;8828;48.800;9.540;2022-07-23T11:26:57;6.10;;;4.88;;
17420;SDS011;8828;48.800;9.540;2022-07-23T11:29:42;12.88;;;8.88;;
17420;SDS011;8828;48.800;9.540;2022-07-23T11:35:22;7.43;;;4.80;;
17420;SDS011;8828;48.800;9.540;2022-07-23T11:37:53;4.78;;;3.72;;
17420;SDS011;8828;48.800;9.540;2022-07-23T11:40:24;5.47;;;4.00;;
17420;SDS011;8828;48.800;9.540;2022-07-23T11:42:55;4.85;;;3.70;;
17420;SDS011;8828;48.800;9.540;2022-07-23T11:45:29;6.47;;;3.72;;
17420;SDS011;8828;48.800;9.540;2022-07-23T11:47:58;6.68;;;5.18;;
17420;SDS011;8828;48.800;9.540;2022-07-23T11:50:26;4.65;;;3.95;;
17420;SDS011;8828;48.800;9.540;2022-07-23T11:52:56;5.05;;;3.58;;
17420;SDS011;8828;48.800;9.540;2022-07-23T11:55:24;4.50;;;3.33;;
17420;SDS011;8828;48.800;9.540;2022-07-23T11:57:54;5.72;;;3.47;;
17420;SDS011;8828;48.800;9.540;2022-07-23T12:00:26;5.15;;;3.90;;
17420;SDS011;8828;48.800;9.540;2022-07-23T12:02:55;4.47;;;3.78;;
17420;SDS011;8828;48.800;9.540;2022-07-23T12:05:26;4.20;;;3.80;;
17420;SDS011;8828;48.800;9.540;2022-07-23T12:07:57;4.63;;;3.67;;
17420;SDS011;8828;48.800;9.540;2022-07-23T12:10:27;4.95;;;3.75;;
17420;SDS011;8828;48.800;9.540;2022-07-23T12:12:57;6.13;;;3.80;;
17420;SDS011;8828;48.800;9.540;2022-07-23T12:15:28;4.97;;;3.92;;
17420;SDS011;8828;48.800;9.540;2022-07-23T12:17:59;4.65;;;3.55;;
17420;SDS011;8828;48.800;9.540;2022-07-23T12:20:29;4.22;;;3.83;;
17420;SDS011;8828;48.800;9.540;2022-07-23T12:23:00;5.10;;;3.92;;
17420;SDS011;8828;48.800;9.540;2022-07-23T12:25:32;4.30;;;3.90;;
17420;SDS011;8828;48.800;9.540;2022-07-23T12:28:03;6.55;;;4.00;;
17420;SDS011;8828;48.800;9.540;2022-07-23T12:30:34;5.00;;;3.88;;
17420;SDS011;8828;48.800;9.540;2022-07-23T12:33:05;5.47;;;4.18;;
17420;SDS011;8828;48.800;9.540;2022-07-23T12:35:35;7.65;;;4.20;;
17420;SDS011;8828;48.800;9.540;2022-07-23T12:38:09;4.85;;;3.65;;
17420;SDS011;8828;48.800;9.540;2022-07-23T12:40:41;5.50;;;4.25;;
17420;SDS011;8828;48.800;9.540;2022-07-23T12:43:11;6.22;;;4.50;;
17420;SDS011;8828;48.800;9.540;2022-07-23T12:45:46;4.97;;;3.75;;
17420;SDS011;8828;48.800;9.540;2022-07-23T12:48:16;6.65;;;4.00;;
17420;SDS011;8828;48.800;9.540;2022-07-23T12:50:51;5.82;;;4.32;;
17420;SDS011;8828;48.800;9.540;2022-07-23T12:53:23;7.53;;;4.00;;
17420;SDS011;8828;48.800;9.540;2022-07-23T12:55:57;4.25;;;3.58;;
17420;SDS011;8828;48.800;9.540;2022-07-23T12:58:46;4.38;;;3.80;;
17420;SDS011;8828;48.800;9.540;2022-07-23T13:01:24;5.20;;;4.03;;
17420;SDS011;8828;48.800;9.540;2022-07-23T13:03:57;4.20;;;3.80;;
17420;SDS011;8828;48.800;9.540;2022-07-23T13:06:28;5.57;;;3.63;;
17420;SDS011;8828;48.800;9.540;2022-07-23T13:08:59;5.32;;;4.00;;
17420;SDS011;8828;48.800;9.540;2022-07-23T13:11:28;5.40;;;4.13;;
17420;SDS011;8828;48.800;9.540;2022-07-23T13:13:57;5.68;;;4.07;;
17420;SDS011;8828;48.800;9.540;2022-07-23T13:16:27;5.85;;;4.47;;
17420;SDS011;8828;48.800;9.540;2022-07-23T13:18:56;5.13;;;3.88;;
17420;SDS011;8828;48.800;9.540;2022-07-23T13:21:25;4.97;;;4.07;;
17420;SDS011;8828;48.800;9.540;2022-07-23T13:23:54;4.78;;;3.88;;
17420;SDS011;8828;48.800;9.540;2022-07-23T13:26:23;4.90;;;3.88;;
17420;SDS011;8828;48.800;9.540;2022-07-23T13:28:52;6.25;;;4.15;;
17420;SDS011;8828;48.800;9.540;2022-07-23T13:31:21;4.65;;;3.97;;
17420;SDS011;8828;48.800;9.540;2022-07-23T13:33:50;5.20;;;3.90;;
17420;SDS011;8828;48.800;9.540;2022-07-23T13:36:18;5.25;;;4.28;;
17420;SDS011;8828;48.800;9.540;2022-07-23T13:38:46;5.97;;;4.10;;
17420;SDS011;8828;48.800;9.540;2022-07-23T13:41:16;5.53;;;3.92;;
17420;SDS011;8828;48.800;9.540;2022-07-23T13:43:46;8.82;;;4.50;;
17420;SDS011;8828;48.800;9.540;2022-07-23T13:46:14;4.68;;;4.10;;
17420;SDS011;8828;48.800;9.540;2022-07-23T13:48:42;5.78;;;4.20;;
17420;SDS011;8828;48.800;9.540;2022-07-23T13:51:10;5.43;;;4.22;;
17420;SDS011;8828;48.800;9.540;2022-07-23T13:53:39;5.95;;;4.30;;
17420;SDS011;8828;48.800;9.540;2022-07-23T13:56:07;5.82;;;4.53;;
17420;SDS011;8828;48.800;9.540;2022-07-23T13:58:35;5.72;;;4.40;;
17420;SDS011;8828;48.800;9.540;2022-07-23T14:01:05;4.70;;;3.97;;
17420;SDS011;8828;48.800;9.540;2022-07-23T14:03:34;5.38;;;4.53;;
17420;SDS011;8828;48.800;9.540;2022-07-23T14:06:02;7.43;;;4.85;;
17420;SDS011;8828;48.800;9.540;2022-07-23T14:08:41;9.68;;;6.43;;
17420;SDS011;8828;48.800;9.540;2022-07-23T14:11:10;5.80;;;4.45;;
17420;SDS011;8828;48.800;9.540;2022-07-23T14:13:38;4.95;;;4.10;;
17420;SDS011;8828;48.800;9.540;2022-07-23T14:16:08;6.25;;;4.88;;
17420;SDS011;8828;48.800;9.540;2022-07-23T14:18:36;4.88;;;4.05;;
17420;SDS011;8828;48.800;9.540;2022-07-23T14:21:04;4.88;;;4.07;;
17420;SDS011;8828;48.800;9.540;2022-07-23T14:23:32;6.30;;;4.80;;
17420;SDS011;8828;48.800;9.540;2022-07-23T14:26:00;6.18;;;4.50;;
17420;SDS011;8828;48.800;9.540;2022-07-23T14:28:30;10.90;;;6.22;;
17420;SDS011;8828;48.800;9.540;2022-07-23T14:31:01;6.57;;;4.80;;
17420;SDS011;8828;48.800;9.540;2022-07-23T14:33:30;6.38;;;4.55;;
17420;SDS011;8828;48.800;9.540;2022-07-23T14:36:00;5.35;;;4.68;;
17420;SDS011;8828;48.800;9.540;2022-07-23T14:38:29;6.43;;;4.22;;
17420;SDS011;8828;48.800;9.540;2022-07-23T14:40:57;6.35;;;4.75;;
17420;SDS011;8828;48.800;9.540;2022-07-23T14:43:25;5.00;;;4.47;;
17420;SDS011;8828;48.800;9.540;2022-07-23T14:45:54;5.18;;;4.28;;
17420;SDS011;8828;48.800;9.540;2022-07-23T14:48:23;5.13;;;4.53;;
17420;SDS011;8828;48.800;9.540;2022-07-23T14:50:52;6.82;;;4.63;;
17420;SDS011;8828;48.800;9.540;2022-07-23T14:53:20;5.10;;;4.60;;
17420;SDS011;8828;48.800;9.540;2022-07-23T14:55:51;6.43;;;5.00;;
17420;SDS011;8828;48.800;9.540;2022-07-23T14:58:20;6.70;;;4.63;;
17420;SDS011;8828;48.800;9.540;2022-07-23T15:00:49;5.80;;;4.88;;
17420;SDS011;8828;48.800;9.540;2022-07-23T15:03:17;9.55;;;6.72;;
17420;SDS011;8828;48.800;9.540;2022-07-23T15:05:45;7.13;;;5.82;;
17420;SDS011;8828;48.800;9.540;2022-07-23T15:08:15;6.85;;;5.13;;
17420;SDS011;8828;48.800;9.540;2022-07-23T15:10:49;5.43;;;4.50;;
17420;SDS011;8828;48.800;9.540;2022-07-23T15:13:17;9.88;;;5.00;;
17420;SDS011;8828;48.800;9.540;2022-07-23T15:15:45;7.45;;;4.75;;
17420;SDS011;8828;48.800;9.540;2022-07-23T15:18:21;8.40;;;6.22;;
17420;SDS011;8828;48.800;9.540;2022-07-23T15:20:49;8.60;;;6.93;;
17420;SDS011;8828;48.800;9.540;2022-07-23T15:23:19;5.72;;;5.15;;
17420;SDS011;8828;48.800;9.540;2022-07-23T15:25:48;5.70;;;4.90;;
17420;SDS011;8828;48.800;9.540;2022-07-23T15:28:16;7.20;;;4.38;;